首页
METAR-TAF:

METAR-TAF

机场 :

克卢日-纳波卡, 罗马尼亚

纬度: 46-47N, 经度: 023-34E, 海拔: 315米

当前天气观测

该预报发布于31分钟前的09:30 UTC
风速3节,风向多变
温度 15°C
湿度 39%
气压 1009 hPa
能见度10公里或以上
少量云层高于3200英尺

METAR: LRCL 290930Z VRB03KT 9999 FEW032 15/01 Q1009

时间: 13:01 (10:01 UTC)

预报

该预报发布于2小时和1分钟前的08:00 UTC
预报有效从29日的 09点(UTC)到 29日的 18点(UTC)
风速4节,风向多变
能见度10公里或以上
1500米以下无云,无积雨云
短暂存在
从 29日的 13点(UTC)到 29日的 17点(UTC)
能見度: 5000
散云层高于3000英尺, 积雨云.
多云层高于4000英尺
阵雨

TAF: LRCL 290800Z 2909/2918 VRB04KT CAVOK TEMPO 2913/2917 5000 SHRA SCT030CB BKN040

超过4000个机场的气象观测和天气预报(METAR&TAF报告)。

可查询的气象台以黄色和红色小点在地图上表示。

将鼠标移到小点上方,可查看气象台名称。

然后点击查看天气观测和预报。

如需切换地图:点击带黑十字的绿色按钮放大地图;点击带横线的绿色按钮缩小地图;或者点击绿色箭头查看邻近地区的地图。


METAR-TAF: